createdAt,value
2023-05-10T00:00:32.394Z,7.71
2023-05-10T00:03:11.065Z,7.69
2023-05-10T00:05:39.129Z,7.67
2023-05-10T00:08:07.126Z,7.64
2023-05-10T00:10:35.125Z,7.61
2023-05-10T00:13:03.904Z,7.57
2023-05-10T00:15:32.130Z,7.54
2023-05-10T00:18:00.214Z,7.51
2023-05-10T00:20:28.232Z,7.47
2023-05-10T00:22:56.207Z,7.45
2023-05-10T00:25:24.230Z,7.43
2023-05-10T00:27:52.242Z,7.41
2023-05-10T00:30:20.311Z,7.41
2023-05-10T00:32:49.326Z,7.40
2023-05-10T00:35:17.473Z,7.40
2023-05-10T00:37:46.414Z,7.40
2023-05-10T00:40:15.195Z,7.41
2023-05-10T00:42:45.030Z,7.41
2023-05-10T00:45:13.051Z,7.42
2023-05-10T00:47:41.727Z,7.42
2023-05-10T00:50:10.424Z,7.42
2023-05-10T00:52:38.528Z,7.43
2023-05-10T00:55:08.200Z,7.43
2023-05-10T00:57:36.226Z,7.43
2023-05-10T01:00:04.930Z,7.42
2023-05-10T01:02:35.265Z,7.40
2023-05-10T01:05:07.349Z,7.38
2023-05-10T01:07:35.379Z,7.37
2023-05-10T01:10:03.658Z,7.35
2023-05-10T01:12:31.947Z,7.33
2023-05-10T01:15:02.628Z,7.30
2023-05-10T01:17:31.242Z,7.27
2023-05-10T01:19:59.449Z,7.24
2023-05-10T01:22:40.412Z,7.20
2023-05-10T01:25:38.674Z,7.15
2023-05-10T01:28:33.127Z,7.09
2023-05-10T01:31:31.943Z,7.03
2023-05-10T01:34:10.730Z,6.96
2023-05-10T01:36:49.414Z,6.90
2023-05-10T01:39:56.483Z,6.85
2023-05-10T01:42:28.754Z,6.79
2023-05-10T01:45:03.590Z,6.72
2023-05-10T01:48:11.075Z,6.66
2023-05-10T01:50:41.658Z,6.60
2023-05-10T01:53:12.703Z,6.54
2023-05-10T01:55:50.615Z,6.50
2023-05-10T01:58:23.683Z,6.45
2023-05-10T02:00:54.920Z,6.43
2023-05-10T02:03:25.667Z,6.42
2023-05-10T02:05:55.548Z,6.39
2023-05-10T02:08:24.838Z,6.38
2023-05-10T02:10:56.886Z,6.36
2023-05-10T02:13:27.229Z,6.33
2023-05-10T02:15:56.765Z,6.27
2023-05-10T02:18:26.874Z,6.20
2023-05-10T02:20:56.656Z,6.14
2023-05-10T02:23:26.126Z,6.09
2023-05-10T02:25:56.082Z,6.03
2023-05-10T02:28:26.205Z,5.98
2023-05-10T02:30:55.350Z,5.94
2023-05-10T02:33:24.634Z,5.91
2023-05-10T02:35:54.424Z,5.87
2023-05-10T02:38:25.530Z,5.82
2023-05-10T02:40:54.749Z,5.80
2023-05-10T02:43:25.829Z,5.78
2023-05-10T02:45:54.182Z,5.79
2023-05-10T02:48:22.190Z,5.79
2023-05-10T02:50:53.524Z,5.82
2023-05-10T02:53:35.479Z,5.85
2023-05-10T02:56:12.159Z,5.87
2023-05-10T02:58:40.101Z,5.88
2023-05-10T03:01:08.887Z,5.86
2023-05-10T03:03:37.173Z,5.88
2023-05-10T03:06:05.615Z,5.90
2023-05-10T03:08:33.647Z,5.92
2023-05-10T03:11:23.310Z,5.94
2023-05-10T03:13:52.119Z,5.98
2023-05-10T03:16:28.533Z,6.00
2023-05-10T03:19:26.003Z,6.03
2023-05-10T03:22:17.076Z,6.07
2023-05-10T03:25:06.839Z,6.09
2023-05-10T03:27:38.389Z,6.12
2023-05-10T03:30:11.745Z,6.16
2023-05-10T03:33:00.012Z,6.20
2023-05-10T03:35:48.160Z,6.24
2023-05-10T03:38:37.030Z,6.25
2023-05-10T03:41:25.604Z,6.29
2023-05-10T03:44:54.445Z,6.31
2023-05-10T03:47:43.489Z,6.33
2023-05-10T03:50:12.986Z,6.34
2023-05-10T03:53:00.975Z,6.33
2023-05-10T03:55:30.537Z,6.33
2023-05-10T03:57:59.071Z,6.33
2023-05-10T04:00:27.257Z,6.33
2023-05-10T04:02:55.620Z,6.33
2023-05-10T04:05:24.846Z,6.33
2023-05-10T04:07:54.476Z,6.32
2023-05-10T04:10:43.034Z,6.32
2023-05-10T04:13:31.171Z,6.34
2023-05-10T04:16:00.348Z,6.41
2023-05-10T04:18:28.643Z,6.49
2023-05-10T04:21:16.788Z,6.57
2023-05-10T04:23:44.889Z,6.66
2023-05-10T04:26:34.045Z,6.75
2023-05-10T04:29:02.121Z,6.87
2023-05-10T04:31:30.176Z,6.98
2023-05-10T04:33:58.222Z,7.10
2023-05-10T04:36:26.097Z,7.18
2023-05-10T04:38:54.172Z,7.24
2023-05-10T04:41:22.126Z,7.27
2023-05-10T04:43:50.592Z,7.29
2023-05-10T04:46:18.700Z,7.31
2023-05-10T04:48:46.759Z,7.33
2023-05-10T04:51:14.795Z,7.37
2023-05-10T04:53:46.439Z,7.44
2023-05-10T04:56:19.432Z,7.51
2023-05-10T04:58:47.436Z,7.59
2023-05-10T05:01:15.473Z,7.65
2023-05-10T05:03:45.929Z,7.72
2023-05-10T05:06:13.964Z,7.80
2023-05-10T05:08:41.964Z,7.87
2023-05-10T05:11:09.957Z,7.99
2023-05-10T05:13:39.473Z,8.14
2023-05-10T05:16:07.757Z,8.25
2023-05-10T05:18:35.714Z,8.33
2023-05-10T05:21:03.788Z,8.42
2023-05-10T05:23:31.764Z,8.51
2023-05-10T05:25:59.607Z,8.58
2023-05-10T05:28:29.798Z,8.67
2023-05-10T05:30:57.663Z,8.74
2023-05-10T05:33:25.538Z,8.83
2023-05-10T05:35:53.567Z,8.91
2023-05-10T05:38:21.465Z,8.97
2023-05-10T05:40:49.396Z,9.00
2023-05-10T05:43:17.297Z,9.05
2023-05-10T05:45:45.188Z,9.10
2023-05-10T05:48:13.057Z,9.16
2023-05-10T05:50:41.079Z,9.20
2023-05-10T05:53:09.806Z,9.24
2023-05-10T05:55:37.938Z,9.28
2023-05-10T05:58:05.884Z,9.32
2023-05-10T06:00:33.954Z,9.35
2023-05-10T06:03:01.980Z,9.39
2023-05-10T06:05:30.628Z,9.46
2023-05-10T06:08:01.141Z,9.51
2023-05-10T06:10:29.161Z,9.55
2023-05-10T06:12:57.237Z,9.59
2023-05-10T06:15:25.346Z,9.66
2023-05-10T06:17:53.353Z,9.69
2023-05-10T06:20:21.326Z,9.71
2023-05-10T06:22:49.237Z,9.75
2023-05-10T06:25:19.227Z,9.82
2023-05-10T06:27:51.147Z,9.91
2023-05-10T06:30:21.356Z,10.01
2023-05-10T06:32:49.377Z,10.12
2023-05-10T06:35:18.024Z,10.19
2023-05-10T06:37:46.150Z,10.25
2023-05-10T06:40:14.416Z,10.29
2023-05-10T06:42:42.305Z,10.35
2023-05-10T06:45:10.899Z,10.42
2023-05-10T06:47:39.433Z,10.50
2023-05-10T06:50:09.470Z,10.59
2023-05-10T06:52:37.398Z,10.69
2023-05-10T06:55:06.167Z,10.79
2023-05-10T06:57:34.297Z,10.87
2023-05-10T07:00:05.132Z,10.96
2023-05-10T07:02:33.580Z,11.07
2023-05-10T07:05:03.665Z,11.17
2023-05-10T07:07:32.219Z,11.27
2023-05-10T07:10:00.148Z,11.35
2023-05-10T07:12:28.485Z,11.46
2023-05-10T07:14:56.363Z,11.55
2023-05-10T07:17:25.529Z,11.61
2023-05-10T07:19:53.678Z,11.61
2023-05-10T07:22:21.648Z,11.69
2023-05-10T07:24:49.527Z,11.79
2023-05-10T07:27:17.427Z,11.89
2023-05-10T07:29:45.246Z,11.98
2023-05-10T07:32:13.198Z,12.09
2023-05-10T07:34:41.238Z,12.19
2023-05-10T07:37:09.051Z,12.27
2023-05-10T07:39:37.034Z,12.35
2023-05-10T07:42:05.025Z,12.45
2023-05-10T07:44:32.889Z,12.54
2023-05-10T07:47:00.875Z,12.63
2023-05-10T07:49:28.827Z,12.75
2023-05-10T07:51:56.738Z,12.80
2023-05-10T07:54:24.683Z,12.81
2023-05-10T07:56:52.682Z,12.82
2023-05-10T07:59:21.108Z,12.91
2023-05-10T08:01:49.044Z,13.01
2023-05-10T08:04:17.117Z,12.99
2023-05-10T08:06:45.070Z,12.98
2023-05-10T08:09:12.986Z,13.05
2023-05-10T08:11:42.503Z,13.13
2023-05-10T08:14:10.460Z,13.25
2023-05-10T08:16:38.251Z,13.37
2023-05-10T08:19:06.438Z,13.44
2023-05-10T08:21:34.548Z,13.57
2023-05-10T08:24:02.744Z,13.64
2023-05-10T08:26:30.752Z,13.68
2023-05-10T08:28:58.654Z,13.73
2023-05-10T08:31:26.500Z,13.77
2023-05-10T08:33:54.540Z,13.90
2023-05-10T08:36:25.130Z,14.00
2023-05-10T08:38:53.355Z,14.10
2023-05-10T08:41:22.472Z,14.03
2023-05-10T08:43:52.253Z,13.96
2023-05-10T08:46:21.644Z,14.02
2023-05-10T08:48:52.706Z,14.07
2023-05-10T08:51:27.661Z,14.20
2023-05-10T08:53:56.497Z,14.33
2023-05-10T08:56:25.203Z,14.40
2023-05-10T08:58:53.639Z,14.43
2023-05-10T09:01:22.837Z,14.52
2023-05-10T09:03:51.875Z,14.65
2023-05-10T09:06:20.002Z,14.80
2023-05-10T09:08:48.730Z,14.91
2023-05-10T09:11:18.301Z,15.00
2023-05-10T09:13:47.382Z,15.11
2023-05-10T09:16:21.600Z,15.23
2023-05-10T09:18:50.841Z,15.34
2023-05-10T09:21:21.594Z,15.40
2023-05-10T09:23:51.328Z,15.48
2023-05-10T09:26:23.625Z,15.62
2023-05-10T09:28:57.226Z,15.75
2023-05-10T09:31:28.471Z,15.85
2023-05-10T09:33:56.369Z,15.93
2023-05-10T09:36:24.394Z,16.00
2023-05-10T09:38:53.793Z,16.12
2023-05-10T09:41:23.747Z,16.29
2023-05-10T09:43:56.124Z,16.47
2023-05-10T09:46:24.208Z,16.62
2023-05-10T09:48:52.352Z,16.63
2023-05-10T09:51:21.796Z,16.67
2023-05-10T09:54:09.614Z,16.71
2023-05-10T09:56:40.000Z,16.74
2023-05-10T09:59:11.438Z,16.81
2023-05-10T10:01:40.197Z,16.95
2023-05-10T10:04:10.791Z,17.02
2023-05-10T10:06:40.216Z,17.05
2023-05-10T10:09:09.205Z,17.15
2023-05-10T10:11:38.770Z,17.25
2023-05-10T10:14:07.029Z,17.41
2023-05-10T10:16:35.091Z,17.52
2023-05-10T10:19:03.286Z,17.63
2023-05-10T10:21:32.095Z,17.71
2023-05-10T10:24:00.088Z,17.72
2023-05-10T10:26:28.488Z,17.81
2023-05-10T10:29:11.427Z,17.93
2023-05-10T10:31:43.032Z,17.96
2023-05-10T10:34:19.562Z,17.97
2023-05-10T10:36:48.050Z,17.98
2023-05-10T10:39:16.964Z,17.97
2023-05-10T10:41:56.357Z,17.95
2023-05-10T10:44:27.216Z,17.85
2023-05-10T10:47:30.169Z,17.83
2023-05-10T10:50:01.683Z,17.89
2023-05-10T10:52:35.488Z,17.89
2023-05-10T10:55:03.841Z,17.91
2023-05-10T10:57:53.479Z,17.94
2023-05-10T11:00:33.294Z,17.88
2023-05-10T11:03:08.540Z,17.90
2023-05-10T11:05:43.771Z,18.04
2023-05-10T11:08:13.423Z,18.23
2023-05-10T11:10:55.092Z,18.39
2023-05-10T11:13:40.780Z,18.46
2023-05-10T11:16:14.357Z,18.38
2023-05-10T11:18:54.398Z,18.44
2023-05-10T11:21:22.584Z,18.39
2023-05-10T11:23:52.879Z,18.27
2023-05-10T11:26:24.248Z,18.15
2023-05-10T11:28:54.705Z,18.08
2023-05-10T11:31:25.012Z,17.93
2023-05-10T11:33:56.102Z,17.87
2023-05-10T11:36:29.591Z,17.88
2023-05-10T11:38:58.007Z,17.68
2023-05-10T11:41:27.879Z,17.60
2023-05-10T11:43:57.054Z,17.67
2023-05-10T11:46:30.771Z,17.87
2023-05-10T11:49:02.829Z,18.06
2023-05-10T11:51:34.849Z,18.03
2023-05-10T11:54:08.342Z,17.99
2023-05-10T11:56:38.340Z,18.15
2023-05-10T11:59:26.347Z,18.21
2023-05-10T12:01:54.598Z,18.32
2023-05-10T12:04:23.523Z,18.43
2023-05-10T12:06:51.806Z,18.39
2023-05-10T12:09:31.497Z,18.33
2023-05-10T12:12:04.025Z,18.28
2023-05-10T12:14:36.860Z,18.32
2023-05-10T12:17:05.022Z,18.31
2023-05-10T12:19:40.238Z,18.31
2023-05-10T12:22:08.476Z,18.42
2023-05-10T12:24:39.276Z,18.50
2023-05-10T12:27:32.729Z,18.32
2023-05-10T12:30:01.401Z,18.00
2023-05-10T12:32:42.469Z,17.75
2023-05-10T12:35:10.722Z,17.84
2023-05-10T12:37:40.312Z,18.06
2023-05-10T12:40:10.512Z,18.29
2023-05-10T12:42:40.100Z,18.46
2023-05-10T12:45:09.853Z,18.63
2023-05-10T12:47:57.951Z,18.77
2023-05-10T12:50:26.000Z,18.92
2023-05-10T12:52:54.122Z,18.87
2023-05-10T12:55:22.218Z,18.89
2023-05-10T12:57:50.458Z,19.03
2023-05-10T13:00:19.101Z,19.10
2023-05-10T13:02:47.380Z,19.28
2023-05-10T13:05:15.580Z,19.54
2023-05-10T13:07:44.994Z,19.68
2023-05-10T13:10:13.360Z,19.69
2023-05-10T13:12:41.607Z,19.72
2023-05-10T13:15:10.098Z,19.68
2023-05-10T13:17:40.075Z,19.61
2023-05-10T13:20:08.478Z,19.44
2023-05-10T13:22:40.557Z,19.29
2023-05-10T13:25:09.655Z,19.25
2023-05-10T13:27:38.610Z,19.29
2023-05-10T13:30:07.965Z,19.40
2023-05-10T13:32:36.628Z,19.36
2023-05-10T13:35:05.564Z,19.37
2023-05-10T13:37:36.604Z,19.33
2023-05-10T13:40:05.633Z,19.14
2023-05-10T13:42:34.565Z,18.84
2023-05-10T13:45:02.896Z,18.53
2023-05-10T13:47:32.101Z,18.20
2023-05-10T13:50:00.122Z,18.03
2023-05-10T13:52:28.228Z,17.96
2023-05-10T13:54:56.344Z,17.99
2023-05-10T13:57:25.177Z,18.09
2023-05-10T13:59:54.721Z,18.09
2023-05-10T14:02:24.082Z,17.96
2023-05-10T14:04:52.217Z,17.72
2023-05-10T14:07:20.488Z,17.51
2023-05-10T14:09:48.683Z,17.32
2023-05-10T14:12:17.332Z,17.13
2023-05-10T14:14:46.315Z,17.20
2023-05-10T14:17:14.322Z,17.34
2023-05-10T14:19:42.391Z,17.44
2023-05-10T14:22:10.440Z,17.68
2023-05-10T14:24:39.267Z,17.85
2023-05-10T14:27:08.141Z,17.92
2023-05-10T14:29:36.844Z,18.01
2023-05-10T14:32:06.232Z,18.12
2023-05-10T14:34:36.704Z,18.16
2023-05-10T14:37:05.726Z,18.25
2023-05-10T14:39:34.507Z,18.35
2023-05-10T14:42:24.219Z,18.45
2023-05-10T14:45:13.210Z,18.55
2023-05-10T14:48:01.666Z,18.50
2023-05-10T14:50:36.687Z,18.49
2023-05-10T14:53:45.566Z,18.51
2023-05-10T14:56:13.618Z,18.46
2023-05-10T14:58:41.664Z,18.29
2023-05-10T15:01:09.722Z,18.10
2023-05-10T15:03:38.467Z,17.89
2023-05-10T15:06:07.335Z,17.77
2023-05-10T15:08:35.439Z,17.80
2023-05-10T15:11:04.079Z,17.87
2023-05-10T15:13:31.963Z,17.96
2023-05-10T15:15:59.916Z,18.03
2023-05-10T15:18:28.045Z,18.06
2023-05-10T15:20:56.392Z,18.05
2023-05-10T15:23:24.328Z,18.06
2023-05-10T15:25:56.530Z,18.07
2023-05-10T15:28:24.804Z,18.11
2023-05-10T15:30:52.885Z,18.12
2023-05-10T15:33:20.853Z,18.13
2023-05-10T15:35:48.834Z,18.12
2023-05-10T15:38:16.781Z,18.12
2023-05-10T15:40:44.714Z,18.11
2023-05-10T15:43:12.688Z,18.12
2023-05-10T15:45:41.206Z,18.14
2023-05-10T15:48:09.269Z,18.06
2023-05-10T15:50:37.393Z,17.99
2023-05-10T15:53:05.737Z,17.91
2023-05-10T15:55:35.120Z,17.75
2023-05-10T15:58:03.184Z,17.74
2023-05-10T16:00:31.385Z,17.77
2023-05-10T16:02:59.483Z,17.74
2023-05-10T16:05:32.012Z,17.73
2023-05-10T16:08:03.352Z,17.66
2023-05-10T16:10:34.476Z,17.62
2023-05-10T16:13:03.889Z,17.59
2023-05-10T16:15:31.997Z,17.52
2023-05-10T16:18:00.228Z,17.47
2023-05-10T16:20:30.054Z,17.44
2023-05-10T16:23:03.338Z,17.37
2023-05-10T16:25:32.115Z,17.29
2023-05-10T16:28:23.248Z,17.16
2023-05-10T16:30:51.786Z,17.01
2023-05-10T16:33:19.747Z,16.89
2023-05-10T16:35:47.829Z,16.76
2023-05-10T16:38:15.754Z,16.61
2023-05-10T16:40:43.739Z,16.43
2023-05-10T16:43:12.003Z,16.26
2023-05-10T16:45:39.861Z,16.09
2023-05-10T16:48:07.788Z,15.96
2023-05-10T16:50:35.806Z,15.84
2023-05-10T16:53:04.377Z,15.74
2023-05-10T16:55:32.258Z,15.62
2023-05-10T16:58:01.014Z,15.50
2023-05-10T17:00:29.500Z,15.37
2023-05-10T17:02:57.498Z,15.25
2023-05-10T17:05:26.657Z,15.18
2023-05-10T17:07:54.804Z,15.10
2023-05-10T17:10:23.037Z,15.00
2023-05-10T17:12:51.539Z,14.91
2023-05-10T17:15:20.751Z,14.82
2023-05-10T17:17:49.138Z,14.71
2023-05-10T17:20:17.087Z,14.60
2023-05-10T17:22:44.984Z,14.51
2023-05-10T17:25:12.952Z,14.43
2023-05-10T17:27:41.090Z,14.35
2023-05-10T17:30:09.368Z,14.26
2023-05-10T17:32:37.255Z,14.18
2023-05-10T17:35:06.345Z,14.09
2023-05-10T17:37:34.276Z,14.01
2023-05-10T17:40:03.437Z,13.94
2023-05-10T17:42:31.344Z,13.85
2023-05-10T17:44:59.518Z,13.76
2023-05-10T17:47:27.955Z,13.68
2023-05-10T17:49:55.805Z,13.60
2023-05-10T17:52:23.796Z,13.51
2023-05-10T17:54:54.963Z,13.42
2023-05-10T17:57:23.730Z,13.33
2023-05-10T17:59:51.672Z,13.24
2023-05-10T18:02:19.588Z,13.18
2023-05-10T18:04:49.462Z,13.10
2023-05-10T18:07:17.572Z,13.01
2023-05-10T18:09:45.568Z,12.92
2023-05-10T18:12:13.777Z,12.86
2023-05-10T18:14:42.791Z,12.77
2023-05-10T18:17:11.032Z,12.69
2023-05-10T18:19:40.146Z,12.61
2023-05-10T18:22:11.112Z,12.53
2023-05-10T18:24:40.103Z,12.44
2023-05-10T18:27:09.205Z,12.36
2023-05-10T18:29:37.575Z,12.30
2023-05-10T18:32:06.378Z,12.22
2023-05-10T18:34:34.524Z,12.15
2023-05-10T18:37:07.406Z,12.10
2023-05-10T18:39:38.652Z,12.05
2023-05-10T18:42:06.814Z,12.01
2023-05-10T18:44:34.872Z,11.99
2023-05-10T18:47:02.813Z,11.95
2023-05-10T18:49:30.727Z,11.90
2023-05-10T18:51:58.642Z,11.85
2023-05-10T18:54:26.880Z,11.77
2023-05-10T18:56:54.753Z,11.71
2023-05-10T18:59:22.929Z,11.65
2023-05-10T19:01:51.424Z,11.60
2023-05-10T19:04:19.607Z,11.55
2023-05-10T19:07:07.665Z,11.51
2023-05-10T19:09:35.667Z,11.45
2023-05-10T19:12:03.940Z,11.39
2023-05-10T19:14:32.098Z,11.35
2023-05-10T19:17:03.076Z,11.32
2023-05-10T19:19:32.398Z,11.29
2023-05-10T19:22:04.129Z,11.25
2023-05-10T19:24:34.902Z,11.19
2023-05-10T19:27:02.904Z,11.13
2023-05-10T19:29:31.145Z,11.08
2023-05-10T19:31:59.227Z,11.05
2023-05-10T19:34:28.872Z,11.02
2023-05-10T19:37:16.961Z,10.98
2023-05-10T19:39:45.167Z,10.96
2023-05-10T19:42:13.054Z,10.95
2023-05-10T19:44:41.124Z,10.93
2023-05-10T19:47:09.360Z,10.90
2023-05-10T19:49:37.334Z,10.87
2023-05-10T19:52:07.858Z,10.83
2023-05-10T19:54:36.132Z,10.80
2023-05-10T19:57:04.300Z,10.77
2023-05-10T19:59:32.293Z,10.74
2023-05-10T20:02:00.186Z,10.71
2023-05-10T20:04:28.941Z,10.67
2023-05-10T20:06:56.879Z,10.63
2023-05-10T20:09:24.900Z,10.59
2023-05-10T20:11:52.739Z,10.54
2023-05-10T20:14:20.673Z,10.50
2023-05-10T20:16:48.751Z,10.46
2023-05-10T20:19:17.408Z,10.42
2023-05-10T20:21:45.383Z,10.38
2023-05-10T20:24:13.402Z,10.35
2023-05-10T20:26:41.301Z,10.32
2023-05-10T20:29:09.607Z,10.29
2023-05-10T20:31:37.511Z,10.25
2023-05-10T20:34:05.752Z,10.22
2023-05-10T20:36:33.651Z,10.19
2023-05-10T20:39:01.607Z,10.14
2023-05-10T20:41:29.580Z,10.08
2023-05-10T20:43:57.574Z,10.01
2023-05-10T20:46:27.123Z,9.96
2023-05-10T20:48:55.330Z,9.91
2023-05-10T20:51:24.292Z,9.87
2023-05-10T20:53:52.107Z,9.84
2023-05-10T20:56:20.017Z,9.80
2023-05-10T20:58:48.079Z,9.75
2023-05-10T21:01:16.081Z,9.68
2023-05-10T21:03:44.230Z,9.64
2023-05-10T21:06:12.155Z,9.58
2023-05-10T21:08:40.129Z,9.53
2023-05-10T21:11:08.118Z,9.48
2023-05-10T21:13:56.060Z,9.45
2023-05-10T21:16:24.018Z,9.42
2023-05-10T21:18:52.093Z,9.40
2023-05-10T21:21:20.205Z,9.37
2023-05-10T21:23:48.251Z,9.35
2023-05-10T21:26:18.441Z,9.31
2023-05-10T21:28:46.516Z,9.25
2023-05-10T21:31:16.566Z,9.21
2023-05-10T21:33:45.879Z,9.17
2023-05-10T21:36:14.152Z,9.14
2023-05-10T21:38:45.117Z,9.09
2023-05-10T21:41:33.026Z,9.04
2023-05-10T21:44:01.309Z,9.00
2023-05-10T21:46:29.314Z,8.96
2023-05-10T21:48:57.478Z,8.93
2023-05-10T21:51:25.615Z,8.91
2023-05-10T21:53:53.527Z,8.87
2023-05-10T21:56:21.631Z,8.85
2023-05-10T21:58:49.686Z,8.84
2023-05-10T22:01:18.189Z,8.83
2023-05-10T22:03:46.544Z,8.83
2023-05-10T22:06:14.521Z,8.82
2023-05-10T22:08:42.617Z,8.80
2023-05-10T22:11:10.713Z,8.76
2023-05-10T22:13:38.731Z,8.72
2023-05-10T22:16:07.147Z,8.69
2023-05-10T22:18:35.211Z,8.66
2023-05-10T22:21:03.248Z,8.62
2023-05-10T22:23:31.891Z,8.58
2023-05-10T22:26:01.740Z,8.54
2023-05-10T22:28:30.488Z,8.50
2023-05-10T22:30:58.634Z,8.48
2023-05-10T22:33:26.878Z,8.45
2023-05-10T22:35:56.128Z,8.42
2023-05-10T22:38:24.224Z,8.39
2023-05-10T22:40:52.210Z,8.36
2023-05-10T22:43:20.332Z,8.34
2023-05-10T22:45:48.365Z,8.32
2023-05-10T22:48:17.253Z,8.28
2023-05-10T22:50:45.417Z,8.25
2023-05-10T22:53:13.529Z,8.22
2023-05-10T22:55:41.785Z,8.19
2023-05-10T22:58:09.804Z,8.17
2023-05-10T23:00:38.389Z,8.14
2023-05-10T23:03:06.959Z,8.11
2023-05-10T23:05:35.215Z,8.08
2023-05-10T23:08:03.170Z,8.04
2023-05-10T23:10:31.507Z,7.98
2023-05-10T23:12:59.674Z,7.93
2023-05-10T23:15:27.710Z,7.88
2023-05-10T23:17:56.616Z,7.84
2023-05-10T23:20:25.000Z,7.82
2023-05-10T23:22:53.105Z,7.81
2023-05-10T23:25:21.233Z,7.81
2023-05-10T23:27:49.359Z,7.81
2023-05-10T23:30:17.900Z,7.79
2023-05-10T23:32:46.234Z,7.77
2023-05-10T23:35:15.469Z,7.75
2023-05-10T23:37:43.554Z,7.73
2023-05-10T23:40:11.983Z,7.71
2023-05-10T23:42:40.365Z,7.69
2023-05-10T23:45:08.949Z,7.67
2023-05-10T23:47:37.057Z,7.67
2023-05-10T23:50:05.969Z,7.66
2023-05-10T23:52:34.065Z,7.66
2023-05-10T23:55:02.364Z,7.64
2023-05-10T23:57:30.351Z,7.61
2023-05-10T23:59:58.530Z,7.60
